Time;durP1;ratioP1;P1;durP2;ratioP2;P2;SDS_P1;SDS_P2;PMS_P1;PMS_P2;Temp;Humidity;BMP_temperature;BMP_pressure;BME280_temperature;BME280_humidity;BME280_pressure;Samples;Min_cycle;Max_cycle;Signal;HPM_P1;HPM_P2
2022/09/12 00:01:26;;;;;;;1.55;1.40;;;;;;;;;;5045758;28;20049;-43
2022/09/12 00:03:57;;;;;;;2.28;1.30;;;;;;;;;;5034410;28;20444;-46
2022/09/12 00:06:29;;;;;;;3.67;1.33;;;;;;;;;;5048324;28;20040;-44
2022/09/12 00:08:57;;;;;;;3.30;1.52;;;;;;;;;;5042503;28;20040;-43
2022/09/12 00:11:23;;;;;;;6.72;1.83;;;;;;;;;;5046654;28;20100;-43
2022/09/12 00:13:48;;;;;;;5.65;1.60;;;;;;;;;;5047139;28;20045;-44
2022/09/12 00:16:19;;;;;;;1.50;1.35;;;;;;;;;;5047561;28;20041;-43
2022/09/12 00:18:45;;;;;;;1.88;1.30;;;;;;;;;;5045466;28;20115;-44
2022/09/12 00:21:12;;;;;;;3.42;1.38;;;;;;;;;;5047952;28;20037;-45
2022/09/12 00:23:37;;;;;;;6.38;1.63;;;;;;;;;;5043958;28;20053;-41
2022/09/12 00:26:05;;;;;;;5.15;2.42;;;;;;;;;;5047138;28;20489;-44
2022/09/12 00:28:33;;;;;;;2.95;1.65;;;;;;;;;;5028055;28;20041;-44
2022/09/12 00:30:59;;;;;;;10.85;1.95;;;;;;;;;;5046282;28;20048;-46
2022/09/12 00:33:25;;;;;;;3.88;1.75;;;;;;;;;;5047836;28;20049;-44
2022/09/12 00:35:54;;;;;;;3.80;1.55;;;;;;;;;;5046403;28;20033;-43
2022/09/12 00:38:20;;;;;;;2.83;1.58;;;;;;;;;;5046795;28;20462;-44
2022/09/12 00:40:46;;;;;;;3.58;1.70;;;;;;;;;;5043620;28;20063;-46
2022/09/12 00:43:37;;;;;;;7.60;2.10;;;;;;;;;;5047679;28;20045;-44
2022/09/12 00:46:24;;;;;;;2.85;1.70;;;;;;;;;;5046849;28;20512;-44
2022/09/12 00:48:58;;;;;;;3.53;1.65;;;;;;;;;;5044072;28;20072;-45
2022/09/12 00:51:24;;;;;;;3.67;1.52;;;;;;;;;;5044620;28;20413;-43
2022/09/12 00:53:53;;;;;;;3.40;1.50;;;;;;;;;;5045626;28;20110;-44
2022/09/12 00:56:20;;;;;;;3.45;1.75;;;;;;;;;;5045216;28;20033;-44
2022/09/12 00:59:10;;;;;;;3.00;1.48;;;;;;;;;;5045659;28;20048;-43
2022/09/12 01:01:36;;;;;;;4.03;1.73;;;;;;;;;;5043082;28;20124;-43
2022/09/12 01:04:03;;;;;;;2.63;1.50;;;;;;;;;;5046058;28;20052;-46
2022/09/12 01:06:38;;;;;;;3.15;1.83;;;;;;;;;;5046223;28;20037;-43
2022/09/12 01:09:04;;;;;;;2.78;2.00;;;;;;;;;;5043946;28;20037;-43
2022/09/12 01:11:34;;;;;;;2.78;1.60;;;;;;;;;;5039133;28;20088;-47
2022/09/12 01:14:00;;;;;;;2.83;1.60;;;;;;;;;;5043989;28;20060;-44
2022/09/12 01:16:26;;;;;;;5.30;2.08;;;;;;;;;;5044731;28;20072;-45
2022/09/12 01:19:19;;;;;;;6.70;2.30;;;;;;;;;;5045091;28;20581;-43
2022/09/12 01:21:54;;;;;;;7.93;1.60;;;;;;;;;;5045394;28;20044;-45
2022/09/12 01:24:45;;;;;;;4.13;2.17;;;;;;;;;;5039140;28;20033;-43
2022/09/12 01:27:17;;;;;;;5.40;1.30;;;;;;;;;;5044258;28;20060;-46
2022/09/12 01:30:20;;;;;;;3.28;1.40;;;;;;;;;;5042017;28;20075;-44
2022/09/12 01:33:18;;;;;;;2.22;1.48;;;;;;;;;;5042877;28;20041;-44
2022/09/12 01:36:01;;;;;;;7.45;2.15;;;;;;;;;;5043441;28;20033;-44
2022/09/12 01:38:38;;;;;;;3.42;1.52;;;;;;;;;;5045965;28;20118;-47
2022/09/12 01:41:10;;;;;;;1.95;1.52;;;;;;;;;;5045057;28;20045;-44
2022/09/12 01:43:42;;;;;;;;;;;;;;;;;;5043293;28;20041;-44
2022/09/12 01:46:16;;;;;;;4.40;1.30;;;;;;;;;;5045330;28;20389;-44
2022/09/12 01:48:59;;;;;;;2.72;1.60;;;;;;;;;;5041891;28;21053;-45
2022/09/12 01:51:38;;;;;;;1.40;1.30;;;;;;;;;;5043393;28;20159;-44
2022/09/12 01:54:11;;;;;;;8.85;1.60;;;;;;;;;;5044321;28;20043;-44
2022/09/12 01:56:40;;;;;;;3.83;1.80;;;;;;;;;;5045524;28;20033;-45
2022/09/12 01:59:29;;;;;;;4.18;1.92;;;;;;;;;;5039794;28;20041;-46
2022/09/12 02:02:00;;;;;;;3.38;1.55;;;;;;;;;;5044810;28;20095;-43
2022/09/12 02:04:34;;;;;;;7.03;1.40;;;;;;;;;;5043151;28;20060;-46
2022/09/12 02:07:19;;;;;;;9.80;1.83;;;;;;;;;;5043926;28;20029;-44
2022/09/12 02:09:51;;;;;;;2.78;1.40;;;;;;;;;;5044172;28;20139;-44
2022/09/12 02:12:19;;;;;;;;;;;;;;;;;;5043723;28;20124;-44
2022/09/12 02:14:50;;;;;;;2.33;1.33;;;;;;;;;;5041735;28;19928;-46
2022/09/12 02:17:21;;;;;;;2.70;1.50;;;;;;;;;;5044989;28;20041;-44
2022/09/12 02:19:53;;;;;;;3.70;1.50;;;;;;;;;;5046272;28;20048;-44
2022/09/12 02:22:23;;;;;;;4.38;1.20;;;;;;;;;;5047645;28;20048;-44
2022/09/12 02:24:54;;;;;;;2.45;1.40;;;;;;;;;;5046079;28;20250;-44
2022/09/12 02:27:28;;;;;;;1.48;1.30;;;;;;;;;;5047788;28;20557;-43
2022/09/12 02:29:54;;;;;;;4.30;1.30;;;;;;;;;;5046673;28;20044;-43
2022/09/12 02:32:33;;;;;;;5.20;1.40;;;;;;;;;;5049504;28;20436;-43
2022/09/12 02:35:24;;;;;;;8.10;1.40;;;;;;;;;;5048690;28;20127;-43
2022/09/12 02:38:05;;;;;;;2.90;1.23;;;;;;;;;;5046818;28;20087;-43
2022/09/12 02:40:32;;;;;;;3.10;1.27;;;;;;;;;;5048201;28;20044;-44
2022/09/12 02:42:58;;;;;;;6.45;1.40;;;;;;;;;;5047955;28;20048;-44
2022/09/12 02:45:24;;;;;;;2.45;1.20;;;;;;;;;;5046976;28;20045;-43
2022/09/12 02:48:02;;;;;;;3.42;1.38;;;;;;;;;;5047986;28;20041;-44
2022/09/12 02:50:28;;;;;;;2.95;1.38;;;;;;;;;;5047667;28;20044;-44
2022/09/12 02:52:58;;;;;;;1.45;1.35;;;;;;;;;;5047201;28;20047;-46
2022/09/12 02:55:25;;;;;;;2.25;1.40;;;;;;;;;;5047208;28;20128;-44
2022/09/12 02:57:51;;;;;;;3.35;1.48;;;;;;;;;;5046379;28;20063;-43
2022/09/12 03:00:16;;;;;;;3.45;1.48;;;;;;;;;;5047082;28;20427;-44
2022/09/12 03:03:30;;;;;;;5.82;1.67;;;;;;;;;;5048392;28;20112;-46
2022/09/12 03:06:01;;;;;;;5.13;1.73;;;;;;;;;;4964746;28;20042;-45
2022/09/12 03:08:59;;;;;;;2.65;1.33;;;;;;;;;;4966946;28;20070;-45
2022/09/12 03:12:00;;;;;;;4.18;1.70;;;;;;;;;;4968718;28;20051;-44
2022/09/12 03:15:01;;;;;;;3.92;1.25;;;;;;;;;;4967452;28;20058;-44
2022/09/12 03:17:54;;;;;;;2.63;1.00;;;;;;;;;;4929527;28;20048;-44
2022/09/12 03:20:33;;;;;;;2.90;1.02;;;;;;;;;;4908699;29;20073;-44
2022/09/12 03:23:08;;;;;;;2.53;1.25;;;;;;;;;;4908306;28;20464;-45
2022/09/12 03:25:43;;;;;;;1.55;1.13;;;;;;;;;;4909226;28;20044;-43
2022/09/12 03:28:13;;;;;;;2.80;1.45;;;;;;;;;;4909476;28;20139;-46
2022/09/12 03:30:41;;;;;;;3.85;1.35;;;;;;;;;;4907830;28;20040;-44
2022/09/12 03:33:11;;;;;;;5.55;1.60;;;;;;;;;;4910588;28;20121;-44
2022/09/12 03:35:36;;;;;;;4.38;1.40;;;;;;;;;;4907711;28;20052;-43
2022/09/12 03:38:02;;;;;;;2.33;1.40;;;;;;;;;;4909118;28;20050;-44
2022/09/12 03:40:28;;;;;;;4.30;1.20;;;;;;;;;;4942181;28;20054;-43
2022/09/12 03:42:53;;;;;;;4.85;1.85;;;;;;;;;;4954118;28;20134;-43
2022/09/12 03:45:19;;;;;;;3.42;1.58;;;;;;;;;;4958062;28;20214;-43
2022/09/12 03:47:45;;;;;;;4.38;1.30;;;;;;;;;;4950758;28;20047;-44
2022/09/12 03:50:10;;;;;;;4.32;1.48;;;;;;;;;;4958337;28;20047;-45
2022/09/12 03:52:36;;;;;;;5.18;1.50;;;;;;;;;;4967648;28;20046;-44
2022/09/12 03:55:02;;;;;;;2.92;1.30;;;;;;;;;;4985599;28;20062;-45
2022/09/12 03:57:28;;;;;;;4.05;1.13;;;;;;;;;;5021302;28;20048;-43
2022/09/12 03:59:53;;;;;;;2.10;1.20;;;;;;;;;;5046514;28;20548;-43
2022/09/12 04:02:19;;;;;;;1.27;1.10;;;;;;;;;;5047491;28;20045;-43
2022/09/12 04:04:47;;;;;;;3.50;1.42;;;;;;;;;;5047201;28;20068;-44
2022/09/12 04:07:14;;;;;;;6.97;1.45;;;;;;;;;;5045907;28;20048;-43
2022/09/12 04:09:39;;;;;;;4.43;1.27;;;;;;;;;;5045908;28;20150;-43
2022/09/12 04:12:05;;;;;;;4.38;1.10;;;;;;;;;;5047281;28;20037;-43
2022/09/12 04:14:31;;;;;;;1.67;1.27;;;;;;;;;;5045889;28;20041;-43
2022/09/12 04:16:57;;;;;;;3.97;1.17;;;;;;;;;;5047374;28;20037;-43
2022/09/12 04:19:24;;;;;;;2.20;1.15;;;;;;;;;;5047985;28;20060;-43
2022/09/12 04:21:50;;;;;;;4.65;1.30;;;;;;;;;;5043456;28;20087;-44
2022/09/12 04:24:15;;;;;;;3.03;1.40;;;;;;;;;;5043007;28;20048;-43
2022/09/12 04:26:41;;;;;;;3.72;1.38;;;;;;;;;;5047203;28;20037;-44
2022/09/12 04:29:10;;;;;;;1.45;1.00;;;;;;;;;;5046043;28;20037;-44
2022/09/12 04:31:36;;;;;;;3.45;1.35;;;;;;;;;;5047239;28;20049;-46
2022/09/12 04:34:01;;;;;;;1.45;1.23;;;;;;;;;;5047112;28;20044;-44
2022/09/12 04:36:28;;;;;;;3.58;1.30;;;;;;;;;;5047243;28;20094;-44
2022/09/12 04:38:54;;;;;;;6.55;1.33;;;;;;;;;;5046595;28;20100;-44
2022/09/12 04:41:22;;;;;;;3.00;1.10;;;;;;;;;;5043958;28;20465;-46
2022/09/12 04:43:52;;;;;;;3.53;1.08;;;;;;;;;;5045133;28;20040;-43
2022/09/12 04:46:19;;;;;;;3.90;1.58;;;;;;;;;;5044020;28;20052;-44
2022/09/12 04:48:45;;;;;;;6.10;1.58;;;;;;;;;;5046259;28;20040;-45
2022/09/12 04:51:13;;;;;;;2.35;1.33;;;;;;;;;;5046084;28;20666;-43
2022/09/12 04:53:40;;;;;;;2.97;1.20;;;;;;;;;;5043682;28;20057;-41
2022/09/12 04:56:07;;;;;;;3.35;1.40;;;;;;;;;;5041980;28;20486;-44
2022/09/12 04:58:34;;;;;;;1.77;1.20;;;;;;;;;;5046364;28;20075;-43
2022/09/12 05:01:07;;;;;;;2.92;1.30;;;;;;;;;;5039931;28;20033;-44
2022/09/12 05:03:34;;;;;;;1.92;1.27;;;;;;;;;;5044020;28;20041;-39
2022/09/12 05:06:03;;;;;;;6.82;1.00;;;;;;;;;;5046882;28;20689;-44
2022/09/12 05:08:28;;;;;;;1.80;1.10;;;;;;;;;;5044848;28;20502;-43
2022/09/12 05:10:54;;;;;;;3.10;1.30;;;;;;;;;;5045874;28;20045;-43
2022/09/12 05:13:21;;;;;;;8.15;1.35;;;;;;;;;;5044722;28;20136;-43
2022/09/12 05:15:57;;;;;;;5.10;1.17;;;;;;;;;;5046945;28;20493;-44
2022/09/12 05:18:23;;;;;;;5.30;1.27;;;;;;;;;;5045766;28;20049;-44
2022/09/12 05:20:49;;;;;;;2.80;1.25;;;;;;;;;;5043126;28;20132;-44
2022/09/12 05:23:14;;;;;;;4.35;1.13;;;;;;;;;;5047526;28;20056;-43
2022/09/12 05:25:51;;;;;;;1.60;1.10;;;;;;;;;;5043873;28;20503;-43
2022/09/12 05:28:17;;;;;;;1.98;1.00;;;;;;;;;;5043702;28;20033;-44
2022/09/12 05:30:43;;;;;;;6.15;1.02;;;;;;;;;;5043117;28;20045;-44
2022/09/12 05:33:10;;;;;;;4.65;1.52;;;;;;;;;;5044929;28;20052;-43
2022/09/12 05:35:37;;;;;;;2.25;1.10;;;;;;;;;;5044527;28;20124;-44
2022/09/12 05:38:05;;;;;;;5.88;1.15;;;;;;;;;;5043822;28;20040;-44
2022/09/12 05:40:31;;;;;;;1.55;1.00;;;;;;;;;;5045347;28;20128;-43
2022/09/12 05:42:56;;;;;;;2.40;1.30;;;;;;;;;;5045612;28;20036;-43
2022/09/12 05:45:22;;;;;;;6.72;1.30;;;;;;;;;;5043247;28;20032;-47
2022/09/12 05:47:48;;;;;;;2.83;0.93;;;;;;;;;;5045850;28;20444;-43
2022/09/12 05:50:14;;;;;;;4.32;1.17;;;;;;;;;;5043105;28;20033;-43
2022/09/12 05:52:40;;;;;;;4.10;1.20;;;;;;;;;;5043224;28;20044;-43
2022/09/12 05:55:06;;;;;;;2.60;1.02;;;;;;;;;;5045828;28;20037;-44
2022/09/12 05:57:32;;;;;;;2.85;1.10;;;;;;;;;;5046730;28;20498;-47
2022/09/12 05:59:58;;;;;;;7.28;1.27;;;;;;;;;;5045493;28;20063;-44
2022/09/12 06:02:24;;;;;;;7.70;1.48;;;;;;;;;;5046661;28;20045;-44
2022/09/12 06:04:50;;;;;;;3.50;1.00;;;;;;;;;;5045200;28;20033;-45
2022/09/12 06:07:15;;;;;;;4.05;1.58;;;;;;;;;;5041089;28;20402;-46
2022/09/12 06:09:41;;;;;;;3.50;1.30;;;;;;;;;;5028922;28;20041;-45
2022/09/12 06:12:07;;;;;;;4.68;1.50;;;;;;;;;;5046093;28;20127;-46
2022/09/12 06:14:33;;;;;;;4.63;1.40;;;;;;;;;;5045512;28;20048;-41
2022/09/12 06:16:59;;;;;;;2.78;1.30;;;;;;;;;;5045541;28;20041;-45
2022/09/12 06:19:26;;;;;;;2.15;1.33;;;;;;;;;;5044535;28;20406;-47
2022/09/12 06:21:52;;;;;;;7.80;1.70;;;;;;;;;;5046457;28;20485;-44
2022/09/12 06:24:19;;;;;;;3.17;1.30;;;;;;;;;;5045057;28;20128;-44
2022/09/12 06:26:46;;;;;;;3.13;1.02;;;;;;;;;;5030338;28;20033;-44
2022/09/12 06:29:12;;;;;;;2.83;1.17;;;;;;;;;;5043530;28;20044;-45
2022/09/12 06:31:40;;;;;;;5.53;1.45;;;;;;;;;;5043527;28;20159;-46
2022/09/12 06:34:09;;;;;;;4.30;1.05;;;;;;;;;;5047427;28;20459;-44
2022/09/12 06:36:43;;;;;;;1.60;1.05;;;;;;;;;;5043392;28;20037;-44
2022/09/12 06:39:18;;;;;;;2.53;1.17;;;;;;;;;;5042478;28;20118;-46
2022/09/12 06:41:44;;;;;;;2.10;1.08;;;;;;;;;;5026999;28;20060;-45
2022/09/12 06:44:15;;;;;;;3.38;1.40;;;;;;;;;;5046213;28;20045;-45
2022/09/12 06:46:41;;;;;;;6.47;1.13;;;;;;;;;;5045302;28;20029;-47
2022/09/12 06:49:07;;;;;;;4.68;1.20;;;;;;;;;;5044241;28;20564;-44
2022/09/12 06:51:35;;;;;;;4.03;1.17;;;;;;;;;;5041476;28;20059;-40
2022/09/12 06:54:05;;;;;;;7.13;1.20;;;;;;;;;;5041228;28;20037;-47
2022/09/12 06:56:42;;;;;;;3.20;1.10;;;;;;;;;;5040460;28;20049;-46
2022/09/12 06:59:10;;;;;;;8.70;1.85;;;;;;;;;;5042705;28;20124;-44
2022/09/12 07:01:36;;;;;;;1.73;1.10;;;;;;;;;;5042047;28;20094;-44
2022/09/12 07:04:07;;;;;;;3.17;1.17;;;;;;;;;;5035281;28;20048;-51
2022/09/12 07:06:41;;;;;;;6.22;1.17;;;;;;;;;;5042094;28;20093;-45
2022/09/12 07:09:15;;;;;;;2.90;1.10;;;;;;;;;;5046856;28;20044;-44
2022/09/12 07:11:43;;;;;;;2.90;1.33;;;;;;;;;;5040693;28;20074;-47
2022/09/12 07:14:12;;;;;;;4.72;0.98;;;;;;;;;;5046438;28;20045;-45
2022/09/12 07:16:38;;;;;;;2.70;1.08;;;;;;;;;;5047362;28;20151;-46
2022/09/12 07:19:05;;;;;;;8.13;1.50;;;;;;;;;;5048772;28;20157;-46
2022/09/12 07:21:31;;;;;;;5.68;1.10;;;;;;;;;;5048811;28;20460;-44
2022/09/12 07:23:58;;;;;;;2.15;1.20;;;;;;;;;;5048896;28;20055;-46
2022/09/12 07:26:26;;;;;;;3.63;1.25;;;;;;;;;;5046911;28;20041;-45
2022/09/12 07:28:53;;;;;;;2.28;1.30;;;;;;;;;;5048121;28;20041;-45
2022/09/12 07:31:20;;;;;;;6.63;1.35;;;;;;;;;;5046711;28;20045;-44
2022/09/12 07:33:46;;;;;;;4.82;1.20;;;;;;;;;;5045148;28;20112;-44
2022/09/12 07:36:16;;;;;;;1.77;1.10;;;;;;;;;;5047300;28;20116;-45
2022/09/12 07:38:42;;;;;;;1.50;1.05;;;;;;;;;;5047229;28;20120;-47
2022/09/12 07:41:19;;;;;;;2.95;1.00;;;;;;;;;;5047941;28;20048;-48
2022/09/12 07:43:45;;;;;;;9.90;1.30;;;;;;;;;;5044566;28;20435;-44
2022/09/12 07:46:11;;;;;;;6.57;1.20;;;;;;;;;;5048060;28;20037;-46
2022/09/12 07:48:38;;;;;;;7.70;1.38;;;;;;;;;;5046793;28;20045;-44
2022/09/12 07:51:07;;;;;;;1.75;1.23;;;;;;;;;;5047331;28;20072;-46
2022/09/12 07:53:38;;;;;;;4.22;0.88;;;;;;;;;;5047375;28;20037;-45
2022/09/12 07:56:05;;;;;;;5.78;1.40;;;;;;;;;;5044736;28;20128;-44
2022/09/12 07:58:32;;;;;;;3.20;1.02;;;;;;;;;;5047989;28;20040;-45
2022/09/12 08:01:09;;;;;;;4.78;1.10;;;;;;;;;;5046663;28;20395;-45
2022/09/12 08:03:35;;;;;;;5.10;1.13;;;;;;;;;;5045457;28;20059;-48
2022/09/12 08:06:09;;;;;;;2.42;1.10;;;;;;;;;;5046121;28;20040;-44
2022/09/12 08:08:35;;;;;;;3.67;1.08;;;;;;;;;;5042889;28;20064;-44
2022/09/12 08:11:04;;;;;;;3.72;0.85;;;;;;;;;;5047699;28;20044;-45
2022/09/12 08:13:31;;;;;;;1.67;1.10;;;;;;;;;;5046561;28;20486;-45
2022/09/12 08:16:03;;;;;;;1.63;1.00;;;;;;;;;;5043592;28;20068;-46
2022/09/12 08:18:31;;;;;;;3.65;1.00;;;;;;;;;;5047353;28;20045;-45
2022/09/12 08:21:03;;;;;;;3.70;1.10;;;;;;;;;;5046476;28;20041;-50
2022/09/12 08:23:28;;;;;;;;;;;;;;;;;;5047568;28;20041;-45
2022/09/12 08:26:00;;;;;;;2.15;1.15;;;;;;;;;;5046915;28;19967;-46
2022/09/12 08:28:26;;;;;;;5.10;1.13;;;;;;;;;;5026295;28;20090;-46
2022/09/12 08:30:53;;;;;;;5.70;1.40;;;;;;;;;;5045102;28;20413;-48
2022/09/12 08:33:19;;;;;;;2.75;1.08;;;;;;;;;;5046721;28;20047;-45
2022/09/12 08:35:45;;;;;;;2.28;1.10;;;;;;;;;;5041832;28;20099;-47
2022/09/12 08:38:11;;;;;;;4.95;1.27;;;;;;;;;;5047637;28;20041;-50
2022/09/12 08:40:49;;;;;;;3.80;1.00;;;;;;;;;;5047172;28;20872;-47
2022/09/12 08:43:45;;;;;;;9.05;1.00;;;;;;;;;;5043007;28;20068;-46
2022/09/12 08:46:21;;;;;;;3.03;1.25;;;;;;;;;;5044038;28;20037;-47
2022/09/12 08:48:47;;;;;;;2.50;1.17;;;;;;;;;;5047352;28;20128;-44
2022/09/12 08:51:15;;;;;;;2.83;1.20;;;;;;;;;;5043140;28;20041;-46
2022/09/12 08:53:42;;;;;;;1.92;0.82;;;;;;;;;;5044459;28;20072;-46
2022/09/12 08:56:10;;;;;;;4.35;0.95;;;;;;;;;;5047889;28;20037;-44
2022/09/12 08:58:42;;;;;;;5.50;1.17;;;;;;;;;;5045399;28;20050;-45
2022/09/12 09:01:31;;;;;;;5.78;1.13;;;;;;;;;;5045696;28;20394;-45
2022/09/12 09:04:09;;;;;;;4.07;1.10;;;;;;;;;;5045118;28;20401;-47
2022/09/12 09:06:59;;;;;;;3.60;1.48;;;;;;;;;;5043036;28;20045;-44
2022/09/12 09:09:43;;;;;;;5.30;1.33;;;;;;;;;;5044220;28;20052;-46
2022/09/12 09:12:24;;;;;;;8.77;1.10;;;;;;;;;;5046657;28;20044;-46
2022/09/12 09:15:00;;;;;;;2.88;1.00;;;;;;;;;;5046135;28;20060;-46
2022/09/12 09:17:33;;;;;;;5.30;1.50;;;;;;;;;;5042128;28;20037;-45
2022/09/12 09:20:14;;;;;;;6.30;1.10;;;;;;;;;;5040168;28;20045;-45
2022/09/12 09:22:46;;;;;;;4.22;1.25;;;;;;;;;;5044684;28;20460;-45
2022/09/12 09:25:18;;;;;;;6.03;1.38;;;;;;;;;;5044397;28;20120;-45
2022/09/12 09:28:01;;;;;;;8.98;1.05;;;;;;;;;;5042389;28;20109;-45
2022/09/12 09:30:27;;;;;;;6.88;1.30;;;;;;;;;;5045061;28;20037;-48
2022/09/12 09:32:56;;;;;;;4.13;1.08;;;;;;;;;;5045942;28;20049;-45
2022/09/12 09:35:40;;;;;;;7.95;1.77;;;;;;;;;;5042757;28;20140;-47
2022/09/12 09:38:36;;;;;;;5.10;1.45;;;;;;;;;;5044134;28;20045;-46
2022/09/12 09:41:26;;;;;;;5.53;1.10;;;;;;;;;;5043955;28;20482;-45
2022/09/12 09:43:52;;;;;;;2.70;1.17;;;;;;;;;;5044600;28;20029;-47
2022/09/12 09:46:17;;;;;;;5.28;1.83;;;;;;;;;;5046662;28;20045;-45
2022/09/12 09:48:48;;;;;;;3.30;1.20;;;;;;;;;;5046851;28;20504;-45
2022/09/12 09:51:18;;;;;;;8.13;1.52;;;;;;;;;;5044197;28;20041;-47
2022/09/12 09:54:00;;;;;;;1.98;1.10;;;;;;;;;;5046414;28;20071;-46
2022/09/12 09:56:31;;;;;;;6.78;1.77;;;;;;;;;;5045656;28;20053;-47
2022/09/12 09:59:25;;;;;;;7.38;1.38;;;;;;;;;;5045742;28;20570;-46
2022/09/12 10:01:58;;;;;;;4.50;1.05;;;;;;;;;;5045556;28;20043;-47
2022/09/12 10:04:27;;;;;;;3.90;1.30;;;;;;;;;;5044285;28;20041;-46
2022/09/12 10:06:56;;;;;;;6.82;1.30;;;;;;;;;;5044989;28;20053;-46
2022/09/12 10:09:27;;;;;;;6.32;1.50;;;;;;;;;;5046326;28;20044;-44
2022/09/12 10:11:55;;;;;;;7.50;1.55;;;;;;;;;;5040630;28;20048;-48
2022/09/12 10:14:39;;;;;;;8.23;1.45;;;;;;;;;;5045654;28;20736;-46
2022/09/12 10:17:22;;;;;;;6.20;1.25;;;;;;;;;;5044609;28;20651;-47
2022/09/12 10:19:47;;;;;;;2.33;1.10;;;;;;;;;;5045083;28;20041;-47
2022/09/12 10:22:20;;;;;;;3.55;1.30;;;;;;;;;;5045160;28;20041;-47
2022/09/12 10:24:51;;;;;;;4.32;1.20;;;;;;;;;;5043556;28;20561;-46
2022/09/12 10:27:23;;;;;;;5.95;1.60;;;;;;;;;;5045419;28;20556;-45
2022/09/12 10:30:04;;;;;;;6.32;1.40;;;;;;;;;;5044810;28;20080;-46
2022/09/12 10:32:36;;;;;;;5.00;1.30;;;;;;;;;;5045348;28;20615;-47
2022/09/12 10:35:07;;;;;;;5.07;1.52;;;;;;;;;;5042651;28;20048;-44
2022/09/12 10:37:41;;;;;;;6.55;1.17;;;;;;;;;;5043352;28;20557;-40
2022/09/12 10:40:20;;;;;;;4.95;1.17;;;;;;;;;;5044718;28;20033;-46
2022/09/12 10:42:48;;;;;;;3.08;1.10;;;;;;;;;;5045730;28;20041;-44
2022/09/12 10:45:27;;;;;;;3.45;1.20;;;;;;;;;;5045503;28;20041;-44
2022/09/12 10:47:57;;;;;;;6.57;1.42;;;;;;;;;;5027403;28;20072;-46
2022/09/12 10:50:40;;;;;;;3.25;1.33;;;;;;;;;;5047394;28;20044;-44
2022/09/12 10:53:22;;;;;;;1.73;1.02;;;;;;;;;;5046079;28;20525;-45
2022/09/12 10:56:05;;;;;;;2.88;1.17;;;;;;;;;;5041230;28;20127;-45
2022/09/12 10:58:40;;;;;;;2.88;1.20;;;;;;;;;;5048672;28;20037;-47
2022/09/12 11:01:36;;;;;;;3.85;1.13;;;;;;;;;;5045824;28;20045;-44
2022/09/12 11:04:14;;;;;;;3.25;1.20;;;;;;;;;;5045769;28;20120;-46
2022/09/12 11:06:59;;;;;;;3.60;1.58;;;;;;;;;;5048285;28;20076;-47
2022/09/12 11:09:36;;;;;;;5.43;1.15;;;;;;;;;;5046618;28;20679;-45
2022/09/12 11:12:14;;;;;;;3.45;1.15;;;;;;;;;;5048928;28;20044;-45
2022/09/12 11:14:59;;;;;;;3.63;1.50;;;;;;;;;;5047859;28;20048;-47
2022/09/12 11:17:52;;;;;;;2.85;1.20;;;;;;;;;;5048541;28;20094;-46
2022/09/12 11:20:24;;;;;;;3.67;1.02;;;;;;;;;;5048604;28;20045;-45
2022/09/12 11:22:52;;;;;;;;;;;;;;;;;;5043952;28;20045;-45
2022/09/12 11:25:33;;;;;;;4.13;1.38;;;;;;;;;;5047504;28;19939;-46
2022/09/12 11:28:17;;;;;;;4.70;1.40;;;;;;;;;;5046362;28;20560;-46
2022/09/12 11:31:20;;;;;;;16.75;1.45;;;;;;;;;;5046587;28;20048;-45
2022/09/12 11:33:53;;;;;;;2.78;1.50;;;;;;;;;;5044847;28;20052;-46
2022/09/12 11:36:57;;;;;;;4.90;1.60;;;;;;;;;;5048624;28;20041;-44
2022/09/12 11:39:37;;;;;;;4.57;1.27;;;;;;;;;;5045739;28;20037;-49
2022/09/12 11:42:04;;;;;;;4.63;1.77;;;;;;;;;;5047145;28;20037;-45
2022/09/12 11:44:38;;;;;;;1.77;1.23;;;;;;;;;;5047607;28;20076;-48
2022/09/12 11:47:12;;;;;;;1.60;1.13;;;;;;;;;;5047012;28;20045;-47
2022/09/12 11:49:46;;;;;;;3.47;1.27;;;;;;;;;;5044648;28;20124;-46
2022/09/12 11:52:29;;;;;;;4.22;1.42;;;;;;;;;;5048604;28;20115;-45
2022/09/12 11:55:05;;;;;;;7.13;1.52;;;;;;;;;;5045912;28;20041;-46
2022/09/12 11:57:52;;;;;;;8.57;1.55;;;;;;;;;;5048084;28;20079;-47
2022/09/12 12:00:22;;;;;;;3.83;1.65;;;;;;;;;;5046496;28;20044;-45
2022/09/12 12:03:07;;;;;;;6.40;1.88;;;;;;;;;;5048112;28;20076;-46
2022/09/12 12:05:44;;;;;;;5.15;1.23;;;;;;;;;;5047798;28;20075;-41
2022/09/12 12:08:11;;;;;;;4.50;1.60;;;;;;;;;;5044938;28;20042;-45
2022/09/12 12:10:49;;;;;;;7.18;1.50;;;;;;;;;;5048020;28;20086;-47
2022/09/12 12:13:31;;;;;;;3.60;1.40;;;;;;;;;;5044533;28;20037;-48
2022/09/12 12:16:03;;;;;;;9.25;1.67;;;;;;;;;;5045717;28;20167;-45
2022/09/12 12:18:31;;;;;;;5.80;1.35;;;;;;;;;;5044871;28;20189;-47
2022/09/12 12:21:17;;;;;;;8.23;1.60;;;;;;;;;;5045872;28;20052;-47
2022/09/12 12:24:06;;;;;;;12.05;1.70;;;;;;;;;;5044212;28;20045;-48
2022/09/12 12:26:38;;;;;;;15.25;1.95;;;;;;;;;;5046608;28;20044;-46
2022/09/12 12:29:16;;;;;;;8.07;1.60;;;;;;;;;;5047269;28;20041;-47
2022/09/12 12:32:02;;;;;;;7.38;1.90;;;;;;;;;;5044393;28;20090;-47
2022/09/12 12:34:42;;;;;;;9.52;1.90;;;;;;;;;;5045663;28;20045;-47
2022/09/12 12:37:17;;;;;;;7.72;1.50;;;;;;;;;;5048595;28;20072;-53
2022/09/12 12:39:44;;;;;;;6.15;1.30;;;;;;;;;;5042903;28;20041;-45
2022/09/12 12:42:30;;;;;;;2.50;1.25;;;;;;;;;;5043697;28;20052;-47
2022/09/12 12:44:55;;;;;;;1.38;1.25;;;;;;;;;;5040857;28;20045;-48
2022/09/12 12:47:26;;;;;;;4.57;1.40;;;;;;;;;;5042599;28;20049;-49
2022/09/12 12:49:56;;;;;;;4.38;1.20;;;;;;;;;;5041319;28;20076;-47
2022/09/12 12:52:24;;;;;;;5.63;1.17;;;;;;;;;;5046444;28;20397;-46
2022/09/12 12:54:56;;;;;;;3.88;1.52;;;;;;;;;;5043734;28;20039;-46
2022/09/12 12:57:27;;;;;;;7.35;1.70;;;;;;;;;;5045847;28;20083;-46
2022/09/12 12:59:56;;;;;;;2.53;1.38;;;;;;;;;;5045739;28;20033;-45
2022/09/12 13:03:08;;;;;;;3.30;1.48;;;;;;;;;;5043540;28;20040;-50
2022/09/12 13:06:01;;;;;;;5.38;1.55;;;;;;;;;;5024983;28;20036;-46
2022/09/12 13:08:32;;;;;;;9.48;1.52;;;;;;;;;;5039211;28;20493;-45
2022/09/12 13:11:00;;;;;;;;;;;;;;;;;;5044554;28;20441;-49
2022/09/12 13:13:45;;;;;;;3.13;1.50;;;;;;;;;;5046429;28;19927;-47
2022/09/12 13:16:11;;;;;;;3.08;1.77;;;;;;;;;;5045472;28;20087;-49
2022/09/12 13:18:44;;;;;;;3.22;1.63;;;;;;;;;;5045312;28;20041;-48
2022/09/12 13:21:19;;;;;;;10.00;1.67;;;;;;;;;;5046265;28;20500;-48
2022/09/12 13:24:03;;;;;;;8.63;2.08;;;;;;;;;;5042497;28;20076;-48
2022/09/12 13:26:34;;;;;;;2.55;1.60;;;;;;;;;;5042721;28;20044;-46
2022/09/12 13:29:17;;;;;;;4.38;1.50;;;;;;;;;;5044718;28;20083;-51
2022/09/12 13:31:50;;;;;;;3.13;1.70;;;;;;;;;;5042389;28;20517;-48
2022/09/12 13:34:23;;;;;;;3.90;1.63;;;;;;;;;;5039077;28;20454;-47
2022/09/12 13:37:23;;;;;;;2.33;1.40;;;;;;;;;;5040939;28;20048;-50
2022/09/12 13:40:09;;;;;;;4.75;1.75;;;;;;;;;;4963400;28;20053;-49
2022/09/12 13:42:47;;;;;;;3.10;1.67;;;;;;;;;;4961239;28;20066;-47
2022/09/12 13:45:20;;;;;;;3.55;2.20;;;;;;;;;;4961690;28;20053;-47
2022/09/12 13:47:49;;;;;;;7.97;1.98;;;;;;;;;;4962964;28;20045;-48
2022/09/12 13:50:22;;;;;;;3.63;1.65;;;;;;;;;;4959484;28;20125;-46
2022/09/12 13:53:00;;;;;;;3.10;1.67;;;;;;;;;;4961875;28;20047;-45
2022/09/12 13:55:35;;;;;;;5.05;2.03;;;;;;;;;;4962024;28;20043;-48
2022/09/12 13:58:21;;;;;;;4.05;1.52;;;;;;;;;;4963807;28;20035;-45
2022/09/12 14:01:00;;;;;;;2.72;1.70;;;;;;;;;;4963618;28;20050;-48
2022/09/12 14:06:17;;;;;;;2.45;1.70;;;;;;;;;;4964401;28;20610;-45
2022/09/12 14:08:46;;;;;;;3.60;1.70;;;;;;;;;;4961918;28;20478;-48
2022/09/12 14:11:32;;;;;;;5.18;2.15;;;;;;;;;;4963574;28;20071;-47
2022/09/12 14:14:03;;;;;;;4.15;1.80;;;;;;;;;;4965240;28;20416;-47
2022/09/12 14:16:33;;;;;;;5.35;1.50;;;;;;;;;;5003981;28;20060;-49
2022/09/12 14:18:59;;;;;;;5.13;1.85;;;;;;;;;;5046253;28;20055;-49
2022/09/12 14:21:29;;;;;;;3.88;1.33;;;;;;;;;;5047049;28;20036;-49
2022/09/12 14:23:56;;;;;;;2.72;1.83;;;;;;;;;;5047071;28;20043;-48
2022/09/12 14:26:23;;;;;;;5.15;1.50;;;;;;;;;;5049583;28;20079;-46
2022/09/12 14:28:49;;;;;;;3.53;1.38;;;;;;;;;;5044573;28;20033;-50
2022/09/12 14:31:30;;;;;;;3.30;1.63;;;;;;;;;;5044247;28;20045;-46
2022/09/12 14:34:14;;;;;;;2.03;1.50;;;;;;;;;;5044672;28;20045;-43
2022/09/12 14:36:51;;;;;;;5.03;1.50;;;;;;;;;;5048041;28;20167;-46
2022/09/12 14:39:25;;;;;;;4.95;1.40;;;;;;;;;;5048087;28;20513;-46
2022/09/12 14:42:04;;;;;;;3.40;1.60;;;;;;;;;;5047157;28;20052;-45
2022/09/12 14:44:31;;;;;;;4.85;1.70;;;;;;;;;;5047975;28;20508;-47
2022/09/12 14:47:10;;;;;;;4.63;1.60;;;;;;;;;;5044354;28;20056;-46
2022/09/12 14:49:36;;;;;;;2.80;1.42;;;;;;;;;;5045588;28;20041;-52
2022/09/12 14:52:05;;;;;;;5.32;2.00;;;;;;;;;;5048031;28;20186;-45
2022/09/12 14:54:31;;;;;;;4.45;1.90;;;;;;;;;;5046651;28;20395;-46
2022/09/12 14:56:59;;;;;;;3.58;1.60;;;;;;;;;;5047186;28;20047;-47
2022/09/12 14:59:27;;;;;;;2.30;1.42;;;;;;;;;;5044722;28;20044;-47
2022/09/12 15:02:18;;;;;;;5.57;1.50;;;;;;;;;;5045225;28;20047;-45
2022/09/12 15:04:53;;;;;;;6.70;1.60;;;;;;;;;;5042433;28;20042;-46
2022/09/12 15:07:42;;;;;;;4.47;1.52;;;;;;;;;;5046475;28;20037;-46
2022/09/12 15:10:29;;;;;;;5.22;1.70;;;;;;;;;;5042792;28;20056;-47
2022/09/12 15:13:16;;;;;;;3.08;1.70;;;;;;;;;;5046824;28;20054;-47
2022/09/12 15:15:44;;;;;;;3.72;1.50;;;;;;;;;;5046622;28;20060;-48
2022/09/12 15:18:11;;;;;;;5.32;1.70;;;;;;;;;;5047065;28;20452;-49
2022/09/12 15:20:38;;;;;;;6.38;1.67;;;;;;;;;;5047443;28;20053;-49